sensor_id;sensor_type;location;lat;lon;timestamp;pressure;altitude;pressure_sealevel;temperature;humidity
10732;BME280;5417;42.686;23.244;2023-11-21T00:00:01;94099.34;;;7.84;67.63
10732;BME280;5417;42.686;23.244;2023-11-21T00:02:30;94123.50;;;7.96;67.78
10732;BME280;5417;42.686;23.244;2023-11-21T00:04:58;94107.72;;;7.88;67.05
10732;BME280;5417;42.686;23.244;2023-11-21T00:07:25;94111.00;;;7.90;66.89
10732;BME280;5417;42.686;23.244;2023-11-21T00:09:53;94110.31;;;7.88;66.71
10732;BME280;5417;42.686;23.244;2023-11-21T00:12:21;94116.19;;;7.90;67.34
10732;BME280;5417;42.686;23.244;2023-11-21T00:14:50;94111.97;;;7.89;66.86
10732;BME280;5417;42.686;23.244;2023-11-21T00:17:18;94116.19;;;7.90;67.45
10732;BME280;5417;42.686;23.244;2023-11-21T00:19:45;94114.66;;;7.87;66.69
10732;BME280;5417;42.686;23.244;2023-11-21T00:22:12;94119.13;;;7.85;66.36
10732;BME280;5417;42.686;23.244;2023-11-21T00:24:40;94114.19;;;7.82;66.83
10732;BME280;5417;42.686;23.244;2023-11-21T00:27:09;94109.84;;;7.83;66.89
10732;BME280;5417;42.686;23.244;2023-11-21T00:29:44;94102.72;;;7.74;67.00
10732;BME280;5417;42.686;23.244;2023-11-21T00:32:11;94102.38;;;7.78;67.57
10732;BME280;5417;42.686;23.244;2023-11-21T00:34:41;94100.06;;;7.86;67.81
10732;BME280;5417;42.686;23.244;2023-11-21T00:37:08;94110.19;;;7.89;67.66
10732;BME280;5417;42.686;23.244;2023-11-21T00:39:35;94108.53;;;7.88;66.70
10732;BME280;5417;42.686;23.244;2023-11-21T00:42:03;94107.72;;;7.88;67.23
10732;BME280;5417;42.686;23.244;2023-11-21T00:44:33;94108.53;;;7.88;66.94
10732;BME280;5417;42.686;23.244;2023-11-21T00:47:00;94117.84;;;7.91;67.69
10732;BME280;5417;42.686;23.244;2023-11-21T00:49:28;94116.44;;;7.87;67.32
10732;BME280;5417;42.686;23.244;2023-11-21T00:51:57;94109.22;;;7.79;68.15
10732;BME280;5417;42.686;23.244;2023-11-21T00:54:24;94105.78;;;7.79;68.17
10732;BME280;5417;42.686;23.244;2023-11-21T00:56:52;94095.28;;;7.69;67.26
10732;BME280;5417;42.686;23.244;2023-11-21T00:59:19;94094.00;;;7.64;67.49
10732;BME280;5417;42.686;23.244;2023-11-21T01:01:47;94092.13;;;7.66;66.75
10732;BME280;5417;42.686;23.244;2023-11-21T01:04:14;94092.34;;;7.63;67.29
10732;BME280;5417;42.686;23.244;2023-11-21T01:06:44;94092.69;;;7.58;66.80
10732;BME280;5417;42.686;23.244;2023-11-21T01:09:18;94062.06;;;7.41;67.60
10732;BME280;5417;42.686;23.244;2023-11-21T01:11:45;94088.09;;;7.50;67.40
10732;BME280;5417;42.686;23.244;2023-11-21T01:14:12;94083.25;;;7.46;66.97
10732;BME280;5417;42.686;23.244;2023-11-21T01:16:39;94088.88;;;7.40;68.48
10732;BME280;5417;42.686;23.244;2023-11-21T01:19:13;94093.13;;;7.41;67.54
10732;BME280;5417;42.686;23.244;2023-11-21T01:21:40;94094.41;;;7.35;67.42
10732;BME280;5417;42.686;23.244;2023-11-21T01:24:08;94101.00;;;7.39;67.97
10732;BME280;5417;42.686;23.244;2023-11-21T01:26:36;94107.94;;;7.39;68.36
10732;BME280;5417;42.686;23.244;2023-11-21T01:29:03;94083.56;;;7.30;67.88
10732;BME280;5417;42.686;23.244;2023-11-21T01:31:31;94086.88;;;7.32;67.71
10732;BME280;5417;42.686;23.244;2023-11-21T01:33:59;94088.75;;;7.30;67.10
10732;BME280;5417;42.686;23.244;2023-11-21T01:36:32;94100.84;;;7.30;67.60
10732;BME280;5417;42.686;23.244;2023-11-21T01:39:00;94101.69;;;7.30;67.62
10732;BME280;5417;42.686;23.244;2023-11-21T01:41:35;94108.63;;;7.30;67.94
10732;BME280;5417;42.686;23.244;2023-11-21T01:44:04;94101.06;;;7.26;67.61
10732;BME280;5417;42.686;23.244;2023-11-21T01:46:36;94086.69;;;7.22;66.69
10732;BME280;5417;42.686;23.244;2023-11-21T01:49:04;94078.22;;;7.20;67.06
10732;BME280;5417;42.686;23.244;2023-11-21T01:51:35;94073.47;;;7.14;67.51
10732;BME280;5417;42.686;23.244;2023-11-21T01:54:03;94080.75;;;7.09;68.04
10732;BME280;5417;42.686;23.244;2023-11-21T01:56:35;94092.91;;;7.20;69.04
10732;BME280;5417;42.686;23.244;2023-11-21T01:59:03;94075.44;;;7.00;68.10
10732;BME280;5417;42.686;23.244;2023-11-21T02:01:33;94098.31;;;7.17;68.30
10732;BME280;5417;42.686;23.244;2023-11-21T02:04:04;94087.13;;;7.16;68.32
10732;BME280;5417;42.686;23.244;2023-11-21T02:06:35;94086.28;;;7.05;68.69
10732;BME280;5417;42.686;23.244;2023-11-21T02:09:04;94095.47;;;7.09;68.48
10732;BME280;5417;42.686;23.244;2023-11-21T02:11:34;94091.44;;;7.05;67.91
10732;BME280;5417;42.686;23.244;2023-11-21T02:14:07;94081.22;;;7.03;68.13
10732;BME280;5417;42.686;23.244;2023-11-21T02:16:37;94087.91;;;7.06;67.39
10732;BME280;5417;42.686;23.244;2023-11-21T02:19:10;94091.34;;;7.06;67.33
10732;BME280;5417;42.686;23.244;2023-11-21T02:21:41;94085.34;;;7.06;68.17
10732;BME280;5417;42.686;23.244;2023-11-21T02:24:16;94078.13;;;6.98;67.81
10732;BME280;5417;42.686;23.244;2023-11-21T02:26:46;94085.56;;;7.03;68.86
10732;BME280;5417;42.686;23.244;2023-11-21T02:29:16;94080.16;;;7.06;69.78
10732;BME280;5417;42.686;23.244;2023-11-21T02:31:47;94076.03;;;7.03;68.43
10732;BME280;5417;42.686;23.244;2023-11-21T02:34:14;94079.69;;;7.01;68.55
10732;BME280;5417;42.686;23.244;2023-11-21T02:36:45;94076.59;;;6.95;68.80
10732;BME280;5417;42.686;23.244;2023-11-21T02:39:17;94083.41;;;6.96;68.47
10732;BME280;5417;42.686;23.244;2023-11-21T02:41:47;94088.47;;;6.98;68.57
10732;BME280;5417;42.686;23.244;2023-11-21T02:44:14;94078.34;;;6.95;68.12
10732;BME280;5417;42.686;23.244;2023-11-21T02:46:42;94069.66;;;6.96;68.49
10732;BME280;5417;42.686;23.244;2023-11-21T02:49:12;94079.06;;;6.97;68.51
10732;BME280;5417;42.686;23.244;2023-11-21T02:51:39;94082.59;;;6.96;68.09
10732;BME280;5417;42.686;23.244;2023-11-21T02:54:09;94083.63;;;6.93;68.55
10732;BME280;5417;42.686;23.244;2023-11-21T02:56:40;94081.06;;;6.93;68.81
10732;BME280;5417;42.686;23.244;2023-11-21T02:59:07;94068.69;;;6.86;68.87
10732;BME280;5417;42.686;23.244;2023-11-21T03:01:37;94081.16;;;6.92;68.26
10732;BME280;5417;42.686;23.244;2023-11-21T03:04:06;94074.44;;;6.89;69.40
10732;BME280;5417;42.686;23.244;2023-11-21T03:06:33;94075.28;;;6.90;68.84
10732;BME280;5417;42.686;23.244;2023-11-21T03:09:00;94070.66;;;6.82;68.47
10732;BME280;5417;42.686;23.244;2023-11-21T03:11:28;94070.56;;;6.84;69.62
10732;BME280;5417;42.686;23.244;2023-11-21T03:13:56;94066.44;;;6.81;69.25
10732;BME280;5417;42.686;23.244;2023-11-21T03:16:23;94069.22;;;6.78;69.72
10732;BME280;5417;42.686;23.244;2023-11-21T03:18:52;94074.06;;;6.83;69.98
10732;BME280;5417;42.686;23.244;2023-11-21T03:21:19;94080.69;;;6.87;69.45
10732;BME280;5417;42.686;23.244;2023-11-21T03:23:46;94083.94;;;6.78;69.03
10732;BME280;5417;42.686;23.244;2023-11-21T03:26:13;94077.41;;;6.72;68.72
10732;BME280;5417;42.686;23.244;2023-11-21T03:28:40;94095.09;;;6.78;69.21
10732;BME280;5417;42.686;23.244;2023-11-21T03:31:09;94093.34;;;6.79;68.11
10732;BME280;5417;42.686;23.244;2023-11-21T03:33:37;94087.22;;;6.80;68.76
10732;BME280;5417;42.686;23.244;2023-11-21T03:36:04;94084.75;;;6.78;68.33
10732;BME280;5417;42.686;23.244;2023-11-21T03:38:34;94083.94;;;6.78;68.60
10732;BME280;5417;42.686;23.244;2023-11-21T03:41:05;94079.69;;;6.77;68.41
10732;BME280;5417;42.686;23.244;2023-11-21T03:43:33;94065.19;;;6.74;68.52
10732;BME280;5417;42.686;23.244;2023-11-21T03:46:00;94049.28;;;6.68;68.75
10732;BME280;5417;42.686;23.244;2023-11-21T03:48:31;94061.66;;;6.75;69.36
10732;BME280;5417;42.686;23.244;2023-11-21T03:50:58;94058.78;;;6.80;69.37
10732;BME280;5417;42.686;23.244;2023-11-21T03:53:28;94057.31;;;6.76;69.02
10732;BME280;5417;42.686;23.244;2023-11-21T03:55:55;94055.47;;;6.78;69.48
10732;BME280;5417;42.686;23.244;2023-11-21T03:58:22;94055.25;;;6.81;69.24
10732;BME280;5417;42.686;23.244;2023-11-21T04:00:53;94041.81;;;6.76;68.87
10732;BME280;5417;42.686;23.244;2023-11-21T04:03:22;94058.00;;;6.90;69.25
10732;BME280;5417;42.686;23.244;2023-11-21T04:05:51;94057.41;;;6.87;69.53
10732;BME280;5417;42.686;23.244;2023-11-21T04:08:18;94053.28;;;6.84;69.12
10732;BME280;5417;42.686;23.244;2023-11-21T04:10:48;94049.63;;;6.87;69.26
10732;BME280;5417;42.686;23.244;2023-11-21T04:13:18;94051.28;;;6.88;70.01
10732;BME280;5417;42.686;23.244;2023-11-21T04:15:45;94046.00;;;6.89;68.67
10732;BME280;5417;42.686;23.244;2023-11-21T04:18:16;94053.88;;;6.88;68.64
10732;BME280;5417;42.686;23.244;2023-11-21T04:20:46;94054.22;;;6.83;68.57
10732;BME280;5417;42.686;23.244;2023-11-21T04:23:15;94056.34;;;6.89;69.04
10732;BME280;5417;42.686;23.244;2023-11-21T04:25:43;94060.59;;;6.90;68.98
10732;BME280;5417;42.686;23.244;2023-11-21T04:28:10;94057.88;;;6.92;69.35
10732;BME280;5417;42.686;23.244;2023-11-21T04:30:37;94059.66;;;6.91;68.96
10732;BME280;5417;42.686;23.244;2023-11-21T04:33:05;94058.59;;;6.94;69.31
10732;BME280;5417;42.686;23.244;2023-11-21T04:35:36;94053.19;;;6.97;69.12
10732;BME280;5417;42.686;23.244;2023-11-21T04:38:03;94049.78;;;6.96;69.09
10732;BME280;5417;42.686;23.244;2023-11-21T04:40:34;94059.19;;;6.97;68.60
10732;BME280;5417;42.686;23.244;2023-11-21T04:43:02;94049.06;;;6.94;68.25
10732;BME280;5417;42.686;23.244;2023-11-21T04:45:29;94056.84;;;6.94;68.53
10732;BME280;5417;42.686;23.244;2023-11-21T04:47:56;94062.00;;;6.94;69.30
10732;BME280;5417;42.686;23.244;2023-11-21T04:50:26;94068.13;;;6.93;69.54
10732;BME280;5417;42.686;23.244;2023-11-21T04:52:53;94066.91;;;6.86;69.49
10732;BME280;5417;42.686;23.244;2023-11-21T04:55:21;94070.09;;;6.90;70.09
10732;BME280;5417;42.686;23.244;2023-11-21T04:57:49;94067.28;;;6.93;70.04
10732;BME280;5417;42.686;23.244;2023-11-21T05:00:20;94070.59;;;6.95;69.67
10732;BME280;5417;42.686;23.244;2023-11-21T05:02:51;94064.00;;;6.91;69.32
10732;BME280;5417;42.686;23.244;2023-11-21T05:05:21;94076.31;;;6.87;69.17
10732;BME280;5417;42.686;23.244;2023-11-21T05:07:48;94067.13;;;6.83;69.90
10732;BME280;5417;42.686;23.244;2023-11-21T05:10:16;94054.53;;;6.79;69.51
10732;BME280;5417;42.686;23.244;2023-11-21T05:12:43;94056.50;;;6.75;70.25
10732;BME280;5417;42.686;23.244;2023-11-21T05:15:14;94057.00;;;6.80;70.99
10732;BME280;5417;42.686;23.244;2023-11-21T05:17:42;94054.47;;;6.91;69.18
10732;BME280;5417;42.686;23.244;2023-11-21T05:20:11;94059.88;;;6.88;69.34
10732;BME280;5417;42.686;23.244;2023-11-21T05:22:39;94056.78;;;6.83;69.54
10732;BME280;5417;42.686;23.244;2023-11-21T05:25:08;94056.91;;;6.82;70.15
10732;BME280;5417;42.686;23.244;2023-11-21T05:27:40;94063.63;;;6.84;71.19
10732;BME280;5417;42.686;23.244;2023-11-21T05:30:07;94068.22;;;6.92;70.20
10732;BME280;5417;42.686;23.244;2023-11-21T05:32:39;94076.22;;;6.89;70.56
10732;BME280;5417;42.686;23.244;2023-11-21T05:35:12;94071.53;;;6.94;69.97
10732;BME280;5417;42.686;23.244;2023-11-21T05:37:42;94076.47;;;6.97;69.22
10732;BME280;5417;42.686;23.244;2023-11-21T05:40:12;94069.16;;;6.91;69.70
10732;BME280;5417;42.686;23.244;2023-11-21T05:42:42;94060.44;;;6.81;69.47
10732;BME280;5417;42.686;23.244;2023-11-21T05:45:09;94079.41;;;6.92;68.97
10732;BME280;5417;42.686;23.244;2023-11-21T05:47:42;94060.53;;;6.79;69.93
10732;BME280;5417;42.686;23.244;2023-11-21T05:50:13;94059.75;;;6.90;70.65
10732;BME280;5417;42.686;23.244;2023-11-21T05:52:45;94041.19;;;6.72;69.67
10732;BME280;5417;42.686;23.244;2023-11-21T05:55:15;94063.63;;;6.84;70.11
10732;BME280;5417;42.686;23.244;2023-11-21T05:57:43;94059.38;;;6.83;69.81
10732;BME280;5417;42.686;23.244;2023-11-21T06:00:12;94069.94;;;6.80;70.52
10732;BME280;5417;42.686;23.244;2023-11-21T06:02:47;94060.91;;;6.86;70.36
10732;BME280;5417;42.686;23.244;2023-11-21T06:05:16;94054.75;;;7.00;69.36
10732;BME280;5417;42.686;23.244;2023-11-21T06:07:44;94063.81;;;7.05;68.51
10732;BME280;5417;42.686;23.244;2023-11-21T06:10:11;94070.78;;;7.16;70.73
10732;BME280;5417;42.686;23.244;2023-11-21T06:12:41;94072.78;;;7.12;71.27
10732;BME280;5417;42.686;23.244;2023-11-21T06:15:12;94079.72;;;7.12;70.28
10732;BME280;5417;42.686;23.244;2023-11-21T06:17:40;94086.75;;;7.10;70.93
10732;BME280;5417;42.686;23.244;2023-11-21T06:20:16;94085.75;;;6.88;71.20
10732;BME280;5417;42.686;23.244;2023-11-21T06:22:46;94087.72;;;6.85;70.80
10732;BME280;5417;42.686;23.244;2023-11-21T06:25:18;94083.81;;;6.79;71.35
10732;BME280;5417;42.686;23.244;2023-11-21T06:27:46;94084.91;;;6.88;71.23
10732;BME280;5417;42.686;23.244;2023-11-21T06:30:17;94084.72;;;7.02;71.27
10732;BME280;5417;42.686;23.244;2023-11-21T06:32:49;94084.56;;;7.16;70.67
10732;BME280;5417;42.686;23.244;2023-11-21T06:35:20;94091.44;;;7.28;69.59
10732;BME280;5417;42.686;23.244;2023-11-21T06:37:50;94093.41;;;7.25;68.59
10732;BME280;5417;42.686;23.244;2023-11-21T06:40:18;94101.13;;;7.38;69.32
10732;BME280;5417;42.686;23.244;2023-11-21T06:42:48;94105.88;;;7.55;68.92
10732;BME280;5417;42.686;23.244;2023-11-21T06:45:16;94097.06;;;7.69;68.64
10732;BME280;5417;42.686;23.244;2023-11-21T06:47:43;94108.84;;;7.73;68.26
10732;BME280;5417;42.686;23.244;2023-11-21T06:50:10;94105.78;;;7.68;66.41
10732;BME280;5417;42.686;23.244;2023-11-21T06:52:39;94103.19;;;7.79;67.01
10732;BME280;5417;42.686;23.244;2023-11-21T06:55:07;94096.75;;;7.84;67.44
10732;BME280;5417;42.686;23.244;2023-11-21T06:57:35;94104.91;;;8.13;66.74
10732;BME280;5417;42.686;23.244;2023-11-21T07:00:03;94105.97;;;8.11;66.21
10732;BME280;5417;42.686;23.244;2023-11-21T07:02:31;94105.59;;;8.15;66.10
10732;BME280;5417;42.686;23.244;2023-11-21T07:05:01;94100.91;;;8.09;66.55
10732;BME280;5417;42.686;23.244;2023-11-21T07:07:28;94095.00;;;8.18;66.43
10732;BME280;5417;42.686;23.244;2023-11-21T07:09:56;94100.66;;;8.12;67.15
10732;BME280;5417;42.686;23.244;2023-11-21T07:12:28;94095.94;;;8.17;66.21
10732;BME280;5417;42.686;23.244;2023-11-21T07:14:56;94083.91;;;8.16;67.04
10732;BME280;5417;42.686;23.244;2023-11-21T07:17:23;94093.94;;;8.21;65.79
10732;BME280;5417;42.686;23.244;2023-11-21T07:19:50;94083.09;;;8.16;66.33
10732;BME280;5417;42.686;23.244;2023-11-21T07:22:17;94092.28;;;8.31;66.81
10732;BME280;5417;42.686;23.244;2023-11-21T07:24:48;94097.03;;;8.48;66.52
10732;BME280;5417;42.686;23.244;2023-11-21T07:27:18;94086.91;;;8.45;65.35
10732;BME280;5417;42.686;23.244;2023-11-21T07:29:45;94103.50;;;8.54;66.20
10732;BME280;5417;42.686;23.244;2023-11-21T07:32:13;94096.44;;;8.56;65.21
10732;BME280;5417;42.686;23.244;2023-11-21T07:34:41;94102.59;;;8.44;65.55
10732;BME280;5417;42.686;23.244;2023-11-21T07:37:08;94092.81;;;8.36;65.05
10732;BME280;5417;42.686;23.244;2023-11-21T07:39:35;94101.19;;;8.40;65.14
10732;BME280;5417;42.686;23.244;2023-11-21T07:42:03;94095.88;;;8.41;66.17
10732;BME280;5417;42.686;23.244;2023-11-21T07:44:31;94095.41;;;8.36;66.73
10732;BME280;5417;42.686;23.244;2023-11-21T07:46:58;94090.66;;;8.52;67.04
10732;BME280;5417;42.686;23.244;2023-11-21T07:49:25;94076.13;;;8.61;65.91
10732;BME280;5417;42.686;23.244;2023-11-21T07:51:53;94087.31;;;8.73;65.84
10732;BME280;5417;42.686;23.244;2023-11-21T07:54:20;94083.16;;;8.81;65.16
10732;BME280;5417;42.686;23.244;2023-11-21T07:56:47;94096.75;;;8.85;65.16
10732;BME280;5417;42.686;23.244;2023-11-21T07:59:14;94085.88;;;8.80;65.12
10732;BME280;5417;42.686;23.244;2023-11-21T08:01:42;94085.53;;;8.84;64.46
10732;BME280;5417;42.686;23.244;2023-11-21T08:04:11;94072.78;;;8.81;64.62
10732;BME280;5417;42.686;23.244;2023-11-21T08:06:38;94074.19;;;8.97;66.08
10732;BME280;5417;42.686;23.244;2023-11-21T08:09:06;94070.25;;;9.02;65.26
10732;BME280;5417;42.686;23.244;2023-11-21T08:11:34;94070.75;;;8.96;65.22
10732;BME280;5417;42.686;23.244;2023-11-21T08:14:01;94077.72;;;8.96;66.27
10732;BME280;5417;42.686;23.244;2023-11-21T08:16:31;94072.94;;;9.12;65.56
10732;BME280;5417;42.686;23.244;2023-11-21T08:18:59;94074.47;;;9.14;64.67
10732;BME280;5417;42.686;23.244;2023-11-21T08:21:28;94078.06;;;9.02;65.92
10732;BME280;5417;42.686;23.244;2023-11-21T08:23:55;94076.94;;;9.16;64.76
10732;BME280;5417;42.686;23.244;2023-11-21T08:26:22;94073.22;;;9.30;65.55
10732;BME280;5417;42.686;23.244;2023-11-21T08:28:49;94067.84;;;9.42;64.37
10732;BME280;5417;42.686;23.244;2023-11-21T08:31:23;94067.16;;;9.40;65.63
10732;BME280;5417;42.686;23.244;2023-11-21T08:33:50;94072.88;;;9.55;64.88
10732;BME280;5417;42.686;23.244;2023-11-21T08:36:21;94066.47;;;9.59;63.90
10732;BME280;5417;42.686;23.244;2023-11-21T08:38:51;94055.31;;;9.47;65.00
10732;BME280;5417;42.686;23.244;2023-11-21T08:41:19;94062.09;;;9.60;63.97
10732;BME280;5417;42.686;23.244;2023-11-21T08:43:47;94071.47;;;9.51;64.73
10732;BME280;5417;42.686;23.244;2023-11-21T08:46:15;94071.34;;;9.53;64.22
10732;BME280;5417;42.686;23.244;2023-11-21T08:48:43;94063.44;;;9.54;65.62
10732;BME280;5417;42.686;23.244;2023-11-21T08:51:13;94065.63;;;9.59;64.17
10732;BME280;5417;42.686;23.244;2023-11-21T08:53:42;94046.38;;;9.61;64.20
10732;BME280;5417;42.686;23.244;2023-11-21T08:56:13;94052.00;;;9.66;64.32
10732;BME280;5417;42.686;23.244;2023-11-21T08:58:40;94047.06;;;9.63;65.08
10732;BME280;5417;42.686;23.244;2023-11-21T09:01:08;94040.19;;;9.83;63.77
10732;BME280;5417;42.686;23.244;2023-11-21T09:03:35;94037.59;;;9.83;63.27
10732;BME280;5417;42.686;23.244;2023-11-21T09:06:02;94033.22;;;9.84;63.47
10732;BME280;5417;42.686;23.244;2023-11-21T09:08:29;94018.00;;;9.79;62.73
10732;BME280;5417;42.686;23.244;2023-11-21T09:10:58;94014.00;;;9.96;63.24
10732;BME280;5417;42.686;23.244;2023-11-21T09:13:26;94003.13;;;9.81;63.17
10732;BME280;5417;42.686;23.244;2023-11-21T09:15:53;93999.16;;;9.87;63.33
10732;BME280;5417;42.686;23.244;2023-11-21T09:18:20;93999.03;;;9.88;62.47
10732;BME280;5417;42.686;23.244;2023-11-21T09:20:47;93992.13;;;9.98;62.51
10732;BME280;5417;42.686;23.244;2023-11-21T09:23:14;93964.31;;;9.89;61.67
10732;BME280;5417;42.686;23.244;2023-11-21T09:25:41;93973.28;;;10.16;61.61
10732;BME280;5417;42.686;23.244;2023-11-21T09:28:13;93970.44;;;10.19;60.55
10732;BME280;5417;42.686;23.244;2023-11-21T09:30:40;93966.19;;;10.18;60.46
10732;BME280;5417;42.686;23.244;2023-11-21T09:33:07;93965.81;;;10.22;61.26
10732;BME280;5417;42.686;23.244;2023-11-21T09:35:36;93960.47;;;10.24;60.29
10732;BME280;5417;42.686;23.244;2023-11-21T09:38:04;93948.84;;;10.28;60.39
10732;BME280;5417;42.686;23.244;2023-11-21T09:40:35;93951.31;;;10.29;59.98
10732;BME280;5417;42.686;23.244;2023-11-21T09:43:06;93949.25;;;10.33;60.18
10732;BME280;5417;42.686;23.244;2023-11-21T09:45:36;93929.44;;;10.41;58.78
10732;BME280;5417;42.686;23.244;2023-11-21T09:48:05;93912.84;;;10.23;59.07
10732;BME280;5417;42.686;23.244;2023-11-21T09:50:32;93920.66;;;10.33;59.42
10732;BME280;5417;42.686;23.244;2023-11-21T09:53:11;93916.72;;;10.48;59.31
10732;BME280;5417;42.686;23.244;2023-11-21T09:55:42;93910.69;;;10.48;59.11
10732;BME280;5417;42.686;23.244;2023-11-21T09:58:10;93897.97;;;10.45;59.29
10732;BME280;5417;42.686;23.244;2023-11-21T10:00:42;93907.94;;;10.68;58.77
10732;BME280;5417;42.686;23.244;2023-11-21T10:03:09;93894.66;;;10.62;58.44
10732;BME280;5417;42.686;23.244;2023-11-21T10:05:37;93904.41;;;10.60;58.59
10732;BME280;5417;42.686;23.244;2023-11-21T10:08:07;93895.34;;;10.64;59.58
10732;BME280;5417;42.686;23.244;2023-11-21T10:10:36;93892.31;;;10.78;58.73
10732;BME280;5417;42.686;23.244;2023-11-21T10:13:04;93892.19;;;10.80;58.56
10732;BME280;5417;42.686;23.244;2023-11-21T10:15:33;93881.66;;;10.71;58.29
10732;BME280;5417;42.686;23.244;2023-11-21T10:18:07;93879.44;;;10.86;58.24
10732;BME280;5417;42.686;23.244;2023-11-21T10:20:34;93873.69;;;11.02;59.10
10732;BME280;5417;42.686;23.244;2023-11-21T10:23:03;93867.34;;;11.14;57.70
10732;BME280;5417;42.686;23.244;2023-11-21T10:25:33;93868.78;;;11.36;57.61
10732;BME280;5417;42.686;23.244;2023-11-21T10:28:03;93861.09;;;11.34;57.48
10732;BME280;5417;42.686;23.244;2023-11-21T10:30:32;93875.41;;;11.21;57.57
10732;BME280;5417;42.686;23.244;2023-11-21T10:33:04;93884.50;;;11.07;57.70
10732;BME280;5417;42.686;23.244;2023-11-21T10:35:44;93862.69;;;11.08;58.34
10732;BME280;5417;42.686;23.244;2023-11-21T10:38:17;93856.25;;;11.02;57.98
10732;BME280;5417;42.686;23.244;2023-11-21T10:40:46;93873.94;;;11.09;58.39
10732;BME280;5417;42.686;23.244;2023-11-21T10:43:17;93851.56;;;11.16;58.12
10732;BME280;5417;42.686;23.244;2023-11-21T10:45:45;93854.25;;;11.33;58.97
10732;BME280;5417;42.686;23.244;2023-11-21T10:48:15;93860.81;;;11.37;58.39
10732;BME280;5417;42.686;23.244;2023-11-21T10:50:46;93853.81;;;11.38;58.29
10732;BME280;5417;42.686;23.244;2023-11-21T10:53:13;93849.28;;;11.40;57.62
10732;BME280;5417;42.686;23.244;2023-11-21T10:55:41;93839.69;;;11.41;58.30
10732;BME280;5417;42.686;23.244;2023-11-21T10:58:10;93844.06;;;11.40;57.23
10732;BME280;5417;42.686;23.244;2023-11-21T11:00:42;93843.97;;;11.32;57.94
10732;BME280;5417;42.686;23.244;2023-11-21T11:03:11;93837.88;;;11.41;57.77
10732;BME280;5417;42.686;23.244;2023-11-21T11:05:47;93824.22;;;11.29;57.31
10732;BME280;5417;42.686;23.244;2023-11-21T11:08:18;93825.34;;;11.27;57.80
10732;BME280;5417;42.686;23.244;2023-11-21T11:10:52;93820.81;;;11.29;57.35
10732;BME280;5417;42.686;23.244;2023-11-21T11:13:23;93820.81;;;11.29;57.32
10732;BME280;5417;42.686;23.244;2023-11-21T11:15:58;93818.06;;;11.30;57.21
10732;BME280;5417;42.686;23.244;2023-11-21T11:18:27;93806.81;;;11.30;57.88
10732;BME280;5417;42.686;23.244;2023-11-21T11:21:01;93802.44;;;11.30;57.50
10732;BME280;5417;42.686;23.244;2023-11-21T11:23:46;93803.06;;;11.42;56.93
10732;BME280;5417;42.686;23.244;2023-11-21T11:26:26;93802.81;;;11.35;56.94
10732;BME280;5417;42.686;23.244;2023-11-21T11:29:08;93794.41;;;11.42;56.98
10732;BME280;5417;42.686;23.244;2023-11-21T11:31:46;93787.84;;;11.47;55.93
10732;BME280;5417;42.686;23.244;2023-11-21T11:34:24;93787.63;;;11.58;57.16
10732;BME280;5417;42.686;23.244;2023-11-21T11:37:00;93790.28;;;11.49;56.56
10732;BME280;5417;42.686;23.244;2023-11-21T11:39:36;93797.44;;;11.47;56.32
10732;BME280;5417;42.686;23.244;2023-11-21T11:42:06;93803.56;;;11.55;56.79
10732;BME280;5417;42.686;23.244;2023-11-21T11:44:51;93807.66;;;11.58;58.64
10732;BME280;5417;42.686;23.244;2023-11-21T11:47:23;93806.69;;;11.59;59.21
10732;BME280;5417;42.686;23.244;2023-11-21T11:50:00;93798.28;;;11.65;59.92
10732;BME280;5417;42.686;23.244;2023-11-21T11:52:49;93791.72;;;11.61;60.32
10732;BME280;5417;42.686;23.244;2023-11-21T11:55:24;93799.75;;;11.50;59.36
10732;BME280;5417;42.686;23.244;2023-11-21T11:58:07;93792.38;;;11.35;60.43
10732;BME280;5417;42.686;23.244;2023-11-21T12:00:35;93793.25;;;11.26;60.32
10732;BME280;5417;42.686;23.244;2023-11-21T12:03:11;93808.00;;;11.08;62.24
10732;BME280;5417;42.686;23.244;2023-11-21T12:05:40;93804.03;;;11.04;63.81
10732;BME280;5417;42.686;23.244;2023-11-21T12:08:12;93803.94;;;10.96;65.13
10732;BME280;5417;42.686;23.244;2023-11-21T12:10:42;93805.03;;;10.84;65.35
10732;BME280;5417;42.686;23.244;2023-11-21T12:13:10;93807.44;;;10.58;66.01
10732;BME280;5417;42.686;23.244;2023-11-21T12:15:40;93806.09;;;10.44;66.66
10732;BME280;5417;42.686;23.244;2023-11-21T12:18:10;93804.81;;;10.38;66.80
10732;BME280;5417;42.686;23.244;2023-11-21T12:20:37;93784.16;;;10.27;67.06
10732;BME280;5417;42.686;23.244;2023-11-21T12:23:08;93797.16;;;10.37;67.26
10732;BME280;5417;42.686;23.244;2023-11-21T12:25:38;93796.34;;;10.46;66.75
10732;BME280;5417;42.686;23.244;2023-11-21T12:28:05;93800.44;;;10.58;66.98
10732;BME280;5417;42.686;23.244;2023-11-21T12:30:34;93805.50;;;10.60;66.54
10732;BME280;5417;42.686;23.244;2023-11-21T12:33:04;93805.91;;;10.65;66.49
10732;BME280;5417;42.686;23.244;2023-11-21T12:35:34;93801.13;;;10.60;66.21
10732;BME280;5417;42.686;23.244;2023-11-21T12:38:03;93794.28;;;10.59;65.75
10732;BME280;5417;42.686;23.244;2023-11-21T12:40:31;93796.47;;;10.54;66.21
10732;BME280;5417;42.686;23.244;2023-11-21T12:43:00;93777.72;;;10.51;66.55
10732;BME280;5417;42.686;23.244;2023-11-21T12:45:29;93767.31;;;10.51;66.55
10732;BME280;5417;42.686;23.244;2023-11-21T12:48:00;93776.19;;;10.58;66.60
10732;BME280;5417;42.686;23.244;2023-11-21T12:50:34;93769.78;;;10.52;66.24
10732;BME280;5417;42.686;23.244;2023-11-21T12:53:06;93767.59;;;10.48;66.47
10732;BME280;5417;42.686;23.244;2023-11-21T12:55:35;93762.69;;;10.45;67.31
10732;BME280;5417;42.686;23.244;2023-11-21T12:58:06;93766.34;;;10.52;66.72
10732;BME280;5417;42.686;23.244;2023-11-21T13:00:36;93759.66;;;10.49;66.54
10732;BME280;5417;42.686;23.244;2023-11-21T13:03:18;93758.41;;;10.53;66.49
10732;BME280;5417;42.686;23.244;2023-11-21T13:05:55;93750.47;;;10.55;66.72
10732;BME280;5417;42.686;23.244;2023-11-21T13:08:27;93761.53;;;10.66;66.07
10732;BME280;5417;42.686;23.244;2023-11-21T13:10:57;93750.59;;;10.53;66.66
10732;BME280;5417;42.686;23.244;2023-11-21T13:13:31;93749.19;;;10.68;66.56
10732;BME280;5417;42.686;23.244;2023-11-21T13:15:59;93752.19;;;10.73;66.71
10732;BME280;5417;42.686;23.244;2023-11-21T13:18:30;93754.94;;;10.72;66.34